Golden Blaze — SVAG6 — position and weather

sailwx.info

Track history (hours):
 
Tides and Currents Weather Stations Pressure Air Temp Water Temp Dewpoint Dewpoint Depression Visibility Wind Speed Wind Dir Waves Ship Positions

Golden Blaze

Last reported at 2014-Aug-21 15:33 UTC. Time now 2014-Aug-21 16:08 UTC.
Position N 36°16' E 025°20'.

Length 74 m; draft 3 m.

Type: Ship. MMSI: 241148000.

Date/timePositionNaut miles runAvg speedWind from/ knotsBaromVisibWave heightAir tempDewpointWater temp
2014-Aug-21 15:33N 36°16' E 025°20'8 8.2
2014-Aug-21 14:33N 36°23' E 025°25'4 3.7
2014-Aug-21 13:33N 36°23' E 025°21'0 0.0
2014-Aug-21 12:33N 36°23' E 025°21'0 0.0
2014-Aug-21 11:33N 36°23' E 025°21'0 0.0
2014-Aug-21 10:34N 36°23' E 025°21'0 0.0
2014-Aug-21 09:34N 36°23' E 025°21'1 1.2
2014-Aug-21 08:33N 36°23' E 025°22'1413.9
2014-Aug-21 07:34N 36°09' E 025°18'2626.4
2014-Aug-21 06:33N 35°43' E 025°13'2322.9
2014-Aug-21 05:33N 35°21' E 025°08'0 0.0
2014-Aug-21 04:33N 35°21' E 025°08'0 0.0
2014-Aug-20 23:10N 35°21' E 025°08'0 0.0
2014-Aug-20 22:33N 35°21' E 025°08'0 0.0
2014-Aug-20 21:33N 35°21' E 025°08'0 0.0
2014-Aug-20 20:33N 35°21' E 025°08'0 0.0
2014-Aug-20 19:33N 35°21' E 025°08'0 0.0
2014-Aug-20 18:28N 35°21' E 025°08'3116.0
2014-Aug-20 16:33N 35°51' E 025°14'2727.0
2014-Aug-20 15:34N 36°17' E 025°20'8 7.5
2014-Aug-20 14:32N 36°23' E 025°26'0 0.0
2014-Aug-20 13:33N 36°23' E 025°26'0 0.0
2014-Aug-20 12:32N 36°23' E 025°26'0 0.0
2014-Aug-20 11:33N 36°23' E 025°26'0 0.0
2014-Aug-20 10:33N 36°23' E 025°26'0 0.0
2014-Aug-20 09:33N 36°23' E 025°26'0 0.0
2014-Aug-20 08:29N 36°23' E 025°26'1920.0
2014-Aug-20 07:34N 36°06' E 025°17'15 0.4
2014-Aug-18 16:27N 35°51' E 025°13'2325.5
2014-Aug-18 15:33N 36°13' E 025°18'12 3.4
2014-Aug-18 12:06N 36°23' E 025°26'0 0.0
2014-Aug-18 10:33N 36°23' E 025°26'0 0.0
2014-Aug-18 09:30N 36°23' E 025°26'0 0.1
2014-Aug-18 08:34N 36°23' E 025°26'2020.1
2014-Aug-18 07:33N 36°04' E 025°18'44 3.4
2014-Aug-17 18:19N 35°21' E 025°08'2715.4
2014-Aug-17 16:33N 35°48' E 025°13'2625.8
2014-Aug-17 15:33N 36°13' E 025°19'1211.7
2014-Aug-17 14:33N 36°23' E 025°26'0 0.0
2014-Aug-17 13:33N 36°23' E 025°26'0 0.0
2014-Aug-17 12:33N 36°23' E 025°26'0 0.0
2014-Aug-17 11:33N 36°23' E 025°26'0 0.0
2014-Aug-17 10:33N 36°23' E 025°26'0 0.0
2014-Aug-17 09:33N 36°23' E 025°26'0 0.1
2014-Aug-17 08:33N 36°23' E 025°26'2121.0
2014-Aug-17 07:33N 36°04' E 025°14'2625.4
2014-Aug-17 06:33N 35°40' E 025°04'46 2.6
2014-Aug-16 12:33N 36°24' E 025°23'0 0.0
2014-Aug-16 11:24N 36°24' E 025°23'0 0.0
2014-Aug-16 10:30N 36°24' E 025°23'0 0.0
2014-Aug-16 09:30N 36°24' E 025°23'2 2.0
2014-Aug-16 08:33N 36°23' E 025°26'1919.1
2014-Aug-16 07:33N 36°09' E 025°10'2524.9
2014-Aug-16 06:33N 35°49' E 024°52'23 1.7
2014-Aug-15 17:09N 35°31' E 025°10'1926.8
2014-Aug-15 16:27N 35°50' E 025°11'2426.5
2014-Aug-15 15:33N 36°13' E 025°19'12 1.7
2014-Aug-15 08:23N 36°23' E 025°26'1923.3
2014-Aug-15 07:33N 36°06' E 025°15'2625.8
2014-Aug-15 06:33N 35°40' E 025°12'20 9.5
2014-Aug-15 04:26N 35°21' E 025°08'0 0.0
2014-Aug-14 23:08N 35°21' E 025°08'0 0.0
2014-Aug-14 19:08N 35°21' E 025°08'10 5.8
2014-Aug-14 17:25N 35°30' E 025°11'2326.7
2014-Aug-14 16:33N 35°53' E 025°15'2726.7
2014-Aug-14 15:33N 36°20' E 025°21'6 5.5
2014-Aug-14 14:33N 36°23' E 025°26'2 2.0
2014-Aug-14 13:32N 36°24' E 025°23'0 0.0
2014-Aug-14 12:29N 36°24' E 025°23'0 0.0
2014-Aug-14 11:29N 36°24' E 025°23'0 0.0
2014-Aug-14 10:29N 36°24' E 025°23'0 0.0
2014-Aug-14 09:29N 36°24' E 025°23'2 2.2
2014-Aug-14 08:33N 36°23' E 025°26'2020.1
2014-Aug-14 07:33N 36°05' E 025°17'2626.2
2014-Aug-14 06:33N 35°39' E 025°12'1818.0
2014-Aug-14 05:32N 35°21' E 025°08'0 0.0
2014-Aug-14 04:32N 35°21' E 025°08'0 0.0
2014-Aug-14 03:26N 35°21' E 025°08'0 0.0
2014-Aug-14 02:32N 35°21' E 025°08'0 0.0
2014-Aug-14 01:26N 35°21' E 025°08'0 0.0
2014-Aug-14 00:32N 35°21' E 025°08'0 0.0
2014-Aug-13 22:26N 35°21' E 025°08'0 0.0
2014-Aug-13 21:32N 35°21' E 025°08'0 0.0
2014-Aug-13 20:26N 35°21' E 025°08'0 0.0
2014-Aug-13 19:29N 35°21' E 025°08'0 0.0
2014-Aug-13 18:32N 35°21' E 025°08'2 2.0
2014-Aug-13 17:34N 35°22' E 025°10'2626.5
2014-Aug-13 16:34N 35°48' E 025°15'2726.6
2014-Aug-13 15:33N 36°15' E 025°19'10 2.0
2014-Aug-13 10:28N 36°23' E 025°26'0 0.1
2014-Aug-13 08:20N 36°23' E 025°26'1822.6
2014-Aug-13 07:33N 36°07' E 025°17'2625.7
2014-Aug-13 06:33N 35°41' E 025°12'21 4.7
2014-Aug-13 02:03N 35°21' E 025°08'0 0.0
2014-Aug-13 01:33N 35°21' E 025°08'0 0.0
2014-Aug-12 22:09N 35°21' E 025°08'0 0.0
2014-Aug-12 18:27N 35°21' E 025°08'0 0.0
2014-Aug-12 17:33N 35°21' E 025°08'0 0.0
2014-Aug-12 16:27N 35°21' E 025°08'0 0.0
2014-Aug-12 15:33N 35°21' E 025°08'0 0.0
2014-Aug-12 14:27N 35°21' E 025°08'0 0.0
2014-Aug-12 13:33N 35°21' E 025°08'0 0.0
2014-Aug-12 12:33N 35°21' E 025°08'0 0.0
2014-Aug-12 11:32N 35°21' E 025°08'0 0.0
2014-Aug-12 10:31N 35°21' E 025°08'0 0.0
2014-Aug-12 09:17N 35°21' E 025°08'0 0.0
2014-Aug-12 08:29N 35°21' E 025°08'0 0.0
2014-Aug-12 06:30N 35°21' E 025°08'0 0.0
2014-Aug-12 05:31N 35°21' E 025°08'0 0.0
2014-Aug-12 02:32N 35°21' E 025°08'0 0.0
2014-Aug-12 00:23N 35°21' E 025°08'0 0.0
2014-Aug-11 23:31N 35°21' E 025°08'0 0.0
2014-Aug-11 22:33N 35°21' E 025°08'0 0.0
2014-Aug-11 21:17N 35°21' E 025°08'0 0.0
2014-Aug-11 20:14N 35°21' E 025°08'0 0.0
2014-Aug-11 19:24N 35°21' E 025°08'0 0.0
2014-Aug-11 18:33N 35°21' E 025°08'8 6.9
2014-Aug-11 17:25N 35°28' E 025°10'2427.4
2014-Aug-11 16:34N 35°51' E 025°15'  
Track history (hours):
 
Tides and Currents Weather Stations Pressure Air Temp Water Temp Dewpoint Dewpoint Depression Visibility Wind Speed Wind Dir Waves Ship Positions

Golden Blaze

Last reported at 2014-Aug-21 15:33 UTC. Time now 2014-Aug-21 16:08 UTC.
Position N 36°16' E 025°20'.

Length 74 m; draft 3 m.

Type: Ship. MMSI: 241148000.

Date/timePositionNaut miles runAvg speedWind from/ knotsBaromVisibWave heightAir tempDewpointWater temp
2014-Aug-21 15:33N 36°16' E 025°20'8 8.2
2014-Aug-21 14:33N 36°23' E 025°25'4 3.7
2014-Aug-21 13:33N 36°23' E 025°21'0 0.0
2014-Aug-21 12:33N 36°23' E 025°21'0 0.0
2014-Aug-21 11:33N 36°23' E 025°21'0 0.0
2014-Aug-21 10:34N 36°23' E 025°21'0 0.0
2014-Aug-21 09:34N 36°23' E 025°21'1 1.2
2014-Aug-21 08:33N 36°23' E 025°22'1413.9
2014-Aug-21 07:34N 36°09' E 025°18'2626.4
2014-Aug-21 06:33N 35°43' E 025°13'2322.9
2014-Aug-21 05:33N 35°21' E 025°08'0 0.0
2014-Aug-21 04:33N 35°21' E 025°08'0 0.0
2014-Aug-20 23:10N 35°21' E 025°08'0 0.0
2014-Aug-20 22:33N 35°21' E 025°08'0 0.0
2014-Aug-20 21:33N 35°21' E 025°08'0 0.0
2014-Aug-20 20:33N 35°21' E 025°08'0 0.0
2014-Aug-20 19:33N 35°21' E 025°08'0 0.0
2014-Aug-20 18:28N 35°21' E 025°08'3116.0
2014-Aug-20 16:33N 35°51' E 025°14'2727.0
2014-Aug-20 15:34N 36°17' E 025°20'8 7.5
2014-Aug-20 14:32N 36°23' E 025°26'0 0.0
2014-Aug-20 13:33N 36°23' E 025°26'0 0.0
2014-Aug-20 12:32N 36°23' E 025°26'0 0.0
2014-Aug-20 11:33N 36°23' E 025°26'0 0.0
2014-Aug-20 10:33N 36°23' E 025°26'0 0.0
2014-Aug-20 09:33N 36°23' E 025°26'0 0.0
2014-Aug-20 08:29N 36°23' E 025°26'1920.0
2014-Aug-20 07:34N 36°06' E 025°17'15 0.4
2014-Aug-18 16:27N 35°51' E 025°13'2325.5
2014-Aug-18 15:33N 36°13' E 025°18'12 3.4
2014-Aug-18 12:06N 36°23' E 025°26'0 0.0
2014-Aug-18 10:33N 36°23' E 025°26'0 0.0
2014-Aug-18 09:30N 36°23' E 025°26'0 0.1
2014-Aug-18 08:34N 36°23' E 025°26'2020.1
2014-Aug-18 07:33N 36°04' E 025°18'44 3.4
2014-Aug-17 18:19N 35°21' E 025°08'2715.4
2014-Aug-17 16:33N 35°48' E 025°13'2625.8
2014-Aug-17 15:33N 36°13' E 025°19'1211.7
2014-Aug-17 14:33N 36°23' E 025°26'0 0.0
2014-Aug-17 13:33N 36°23' E 025°26'0 0.0
2014-Aug-17 12:33N 36°23' E 025°26'0 0.0
2014-Aug-17 11:33N 36°23' E 025°26'0 0.0
2014-Aug-17 10:33N 36°23' E 025°26'0 0.0
2014-Aug-17 09:33N 36°23' E 025°26'0 0.1
2014-Aug-17 08:33N 36°23' E 025°26'2121.0
2014-Aug-17 07:33N 36°04' E 025°14'2625.4
2014-Aug-17 06:33N 35°40' E 025°04'46 2.6
2014-Aug-16 12:33N 36°24' E 025°23'0 0.0
2014-Aug-16 11:24N 36°24' E 025°23'0 0.0
2014-Aug-16 10:30N 36°24' E 025°23'0 0.0
2014-Aug-16 09:30N 36°24' E 025°23'2 2.0
2014-Aug-16 08:33N 36°23' E 025°26'1919.1
2014-Aug-16 07:33N 36°09' E 025°10'2524.9
2014-Aug-16 06:33N 35°49' E 024°52'23 1.7
2014-Aug-15 17:09N 35°31' E 025°10'1926.8
2014-Aug-15 16:27N 35°50' E 025°11'2426.5
2014-Aug-15 15:33N 36°13' E 025°19'12 1.7
2014-Aug-15 08:23N 36°23' E 025°26'1923.3
2014-Aug-15 07:33N 36°06' E 025°15'2625.8
2014-Aug-15 06:33N 35°40' E 025°12'20 9.5
2014-Aug-15 04:26N 35°21' E 025°08'0 0.0
2014-Aug-14 23:08N 35°21' E 025°08'0 0.0
2014-Aug-14 19:08N 35°21' E 025°08'10 5.8
2014-Aug-14 17:25N 35°30' E 025°11'2326.7
2014-Aug-14 16:33N 35°53' E 025°15'2726.7
2014-Aug-14 15:33N 36°20' E 025°21'6 5.5
2014-Aug-14 14:33N 36°23' E 025°26'2 2.0
2014-Aug-14 13:32N 36°24' E 025°23'0 0.0
2014-Aug-14 12:29N 36°24' E 025°23'0 0.0
2014-Aug-14 11:29N 36°24' E 025°23'0 0.0
2014-Aug-14 10:29N 36°24' E 025°23'0 0.0
2014-Aug-14 09:29N 36°24' E 025°23'2 2.2
2014-Aug-14 08:33N 36°23' E 025°26'2020.1
2014-Aug-14 07:33N 36°05' E 025°17'2626.2
2014-Aug-14 06:33N 35°39' E 025°12'1818.0
2014-Aug-14 05:32N 35°21' E 025°08'0 0.0
2014-Aug-14 04:32N 35°21' E 025°08'0 0.0
2014-Aug-14 03:26N 35°21' E 025°08'0 0.0
2014-Aug-14 02:32N 35°21' E 025°08'0 0.0
2014-Aug-14 01:26N 35°21' E 025°08'0 0.0
2014-Aug-14 00:32N 35°21' E 025°08'0 0.0
2014-Aug-13 22:26N 35°21' E 025°08'0 0.0
2014-Aug-13 21:32N 35°21' E 025°08'0 0.0
2014-Aug-13 20:26N 35°21' E 025°08'0 0.0
2014-Aug-13 19:29N 35°21' E 025°08'0 0.0
2014-Aug-13 18:32N 35°21' E 025°08'2 2.0
2014-Aug-13 17:34N 35°22' E 025°10'2626.5
2014-Aug-13 16:34N 35°48' E 025°15'2726.6
2014-Aug-13 15:33N 36°15' E 025°19'10 2.0
2014-Aug-13 10:28N 36°23' E 025°26'0 0.1
2014-Aug-13 08:20N 36°23' E 025°26'1822.6
2014-Aug-13 07:33N 36°07' E 025°17'2625.7
2014-Aug-13 06:33N 35°41' E 025°12'21 4.7
2014-Aug-13 02:03N 35°21' E 025°08'0 0.0
2014-Aug-13 01:33N 35°21' E 025°08'0 0.0
2014-Aug-12 22:09N 35°21' E 025°08'0 0.0
2014-Aug-12 18:27N 35°21' E 025°08'0 0.0
2014-Aug-12 17:33N 35°21' E 025°08'0 0.0
2014-Aug-12 16:27N 35°21' E 025°08'0 0.0
2014-Aug-12 15:33N 35°21' E 025°08'0 0.0
2014-Aug-12 14:27N 35°21' E 025°08'0 0.0
2014-Aug-12 13:33N 35°21' E 025°08'0 0.0
2014-Aug-12 12:33N 35°21' E 025°08'0 0.0
2014-Aug-12 11:32N 35°21' E 025°08'0 0.0
2014-Aug-12 10:31N 35°21' E 025°08'0 0.0
2014-Aug-12 09:17N 35°21' E 025°08'0 0.0
2014-Aug-12 08:29N 35°21' E 025°08'0 0.0
2014-Aug-12 06:30N 35°21' E 025°08'0 0.0
2014-Aug-12 05:31N 35°21' E 025°08'0 0.0
2014-Aug-12 02:32N 35°21' E 025°08'0 0.0
2014-Aug-12 00:23N 35°21' E 025°08'0 0.0
2014-Aug-11 23:31N 35°21' E 025°08'0 0.0
2014-Aug-11 22:33N 35°21' E 025°08'0 0.0
2014-Aug-11 21:17N 35°21' E 025°08'0 0.0
2014-Aug-11 20:14N 35°21' E 025°08'0 0.0
2014-Aug-11 19:24N 35°21' E 025°08'0 0.0
2014-Aug-11 18:33N 35°21' E 025°08'8 6.9
2014-Aug-11 17:25N 35°28' E 025°10'2427.4
2014-Aug-11 16:34N 35°51' E 025°15'  

Dump ship's entire track history